Time;durP1;ratioP1;P1;durP2;ratioP2;P2;SDS_P1;SDS_P2;PMS_P1;PMS_P2;Temp;Humidity;BMP_temperature;BMP_pressure;BME280_temperature;BME280_humidity;BME280_pressure;Samples;Min_cycle;Max_cycle;Signal;HPM_P1;HPM_P2
2023/05/21 00:01:51;;;;;;;14.75;8.93;;;;;;;;;;5116771;28;20047;-82
2023/05/21 00:04:39;;;;;;;19.08;9.13;;;;;;;;;;5116621;28;20035;-82
2023/05/21 00:07:30;;;;;;;11.23;7.80;;;;;;;;;;5116614;28;20048;-79
2023/05/21 00:10:18;;;;;;;11.02;6.82;;;;;;;;;;5108305;28;20043;-80
2023/05/21 00:13:04;;;;;;;10.15;6.10;;;;;;;;;;5094525;28;20405;-78
2023/05/21 00:15:49;;;;;;;12.95;6.57;;;;;;;;;;5095883;28;20040;-79
2023/05/21 00:18:38;;;;;;;8.73;6.55;;;;;;;;;;5095436;28;20397;-81
2023/05/21 00:21:24;;;;;;;9.15;6.22;;;;;;;;;;5095654;28;20051;-80
2023/05/21 00:24:13;;;;;;;10.27;7.03;;;;;;;;;;5101880;28;20481;-80
2023/05/21 00:26:59;;;;;;;14.15;6.30;;;;;;;;;;5095867;28;20044;-78
2023/05/21 00:29:44;;;;;;;15.35;7.18;;;;;;;;;;5094938;28;20044;-81
2023/05/21 00:32:30;;;;;;;11.25;7.10;;;;;;;;;;5101640;28;20044;-81
2023/05/21 00:35:17;;;;;;;10.43;6.55;;;;;;;;;;5095108;28;20040;-81
2023/05/21 00:38:02;;;;;;;15.65;7.82;;;;;;;;;;5094624;28;20036;-78
2023/05/21 00:40:49;;;;;;;11.48;7.72;;;;;;;;;;5094416;28;20044;-81
2023/05/21 00:43:39;;;;;;;16.65;6.93;;;;;;;;;;5095294;28;20039;-79
2023/05/21 00:46:24;;;;;;;10.07;7.43;;;;;;;;;;5095349;28;20052;-79
2023/05/21 00:49:11;;;;;;;11.48;7.22;;;;;;;;;;5095085;28;20036;-78
2023/05/21 00:51:56;;;;;;;10.48;6.85;;;;;;;;;;5101234;28;20044;-79
2023/05/21 00:54:42;;;;;;;11.85;6.88;;;;;;;;;;5094981;28;20489;-79
2023/05/21 00:57:28;;;;;;;10.32;5.80;;;;;;;;;;5100789;28;20036;-80
2023/05/21 01:00:13;;;;;;;10.93;6.43;;;;;;;;;;5100702;28;20497;-81
2023/05/21 01:02:59;;;;;;;12.02;6.70;;;;;;;;;;5094891;28;20489;-78
2023/05/21 01:05:45;;;;;;;9.13;6.57;;;;;;;;;;5095210;28;20052;-81
2023/05/21 01:08:33;;;;;;;9.57;6.50;;;;;;;;;;5094946;28;20055;-79
2023/05/21 01:11:20;;;;;;;11.20;6.13;;;;;;;;;;5100298;28;20039;-81
2023/05/21 01:14:08;;;;;;;9.07;6.55;;;;;;;;;;5107233;28;20043;-78
2023/05/21 01:16:53;;;;;;;12.27;6.80;;;;;;;;;;5115026;28;20051;-79
2023/05/21 01:19:40;;;;;;;12.40;6.80;;;;;;;;;;5106687;28;20043;-81
2023/05/21 01:22:31;;;;;;;9.23;6.82;;;;;;;;;;5106694;28;20039;-81
2023/05/21 01:25:16;;;;;;;13.98;6.85;;;;;;;;;;5115536;28;20044;-81
2023/05/21 01:28:01;;;;;;;10.65;7.00;;;;;;;;;;5114820;28;20043;-81
2023/05/21 01:30:47;;;;;;;8.98;6.25;;;;;;;;;;5106644;28;20044;-79
2023/05/21 01:33:40;;;;;;;9.52;6.50;;;;;;;;;;5106475;28;20420;-81
2023/05/21 01:36:29;;;;;;;7.60;6.28;;;;;;;;;;5106196;28;20043;-80
2023/05/21 01:39:22;;;;;;;9.10;6.25;;;;;;;;;;5106084;28;20043;-81
2023/05/21 01:42:09;;;;;;;9.73;6.53;;;;;;;;;;5106131;28;20043;-79
2023/05/21 01:44:56;;;;;;;10.50;6.72;;;;;;;;;;5114624;28;20493;-81
2023/05/21 01:47:44;;;;;;;12.15;6.85;;;;;;;;;;5106126;28;20047;-81
2023/05/21 01:50:31;;;;;;;12.90;6.90;;;;;;;;;;5105959;28;20035;-80
2023/05/21 01:53:16;;;;;;;10.07;6.97;;;;;;;;;;5106158;28;20036;-82
2023/05/21 01:56:01;;;;;;;10.57;6.68;;;;;;;;;;5106117;28;20055;-80
2023/05/21 01:58:48;;;;;;;12.90;7.07;;;;;;;;;;5105712;28;20043;-82
2023/05/21 02:01:33;;;;;;;11.13;6.05;;;;;;;;;;5105251;28;20047;-82
2023/05/21 02:04:18;;;;;;;11.75;6.97;;;;;;;;;;5105870;28;20039;-81
2023/05/21 02:07:04;;;;;;;9.90;6.68;;;;;;;;;;5106094;28;20047;-82
2023/05/21 02:09:49;;;;;;;11.57;6.65;;;;;;;;;;5105987;28;20051;-83
2023/05/21 02:12:36;;;;;;;9.15;6.30;;;;;;;;;;5099985;28;20501;-82
2023/05/21 02:15:23;;;;;;;8.60;5.63;;;;;;;;;;5105645;28;20397;-83
2023/05/21 02:18:10;;;;;;;8.07;6.63;;;;;;;;;;5114205;28;20039;-79
2023/05/21 02:20:55;;;;;;;13.18;7.40;;;;;;;;;;5105684;28;20043;-81
2023/05/21 02:23:41;;;;;;;12.65;7.75;;;;;;;;;;5114217;28;20036;-81
2023/05/21 02:26:26;;;;;;;11.05;7.55;;;;;;;;;;5105216;28;20043;-80
2023/05/21 02:29:11;;;;;;;12.75;8.40;;;;;;;;;;5105514;28;20396;-81
2023/05/21 02:31:57;;;;;;;11.90;7.63;;;;;;;;;;5114017;28;20044;-80
2023/05/21 02:34:43;;;;;;;8.77;6.65;;;;;;;;;;5114074;28;20043;-81
2023/05/21 02:37:33;;;;;;;10.10;6.35;;;;;;;;;;5105002;28;20040;-82
2023/05/21 02:40:19;;;;;;;7.60;5.70;;;;;;;;;;5099369;28;20039;-84
2023/05/21 02:43:04;;;;;;;11.18;6.40;;;;;;;;;;5104911;28;20473;-84
2023/05/21 02:45:50;;;;;;;10.98;6.00;;;;;;;;;;5106079;28;20043;-84
2023/05/21 02:48:35;;;;;;;9.48;5.82;;;;;;;;;;5105774;28;20481;-83
2023/05/21 02:51:22;;;;;;;16.33;6.25;;;;;;;;;;5091291;28;20043;-82
2023/05/21 02:54:08;;;;;;;8.32;5.72;;;;;;;;;;5105646;28;20040;-82
2023/05/21 02:56:53;;;;;;;8.30;5.68;;;;;;;;;;5105517;28;20039;-84
2023/05/21 02:59:39;;;;;;;8.48;6.45;;;;;;;;;;5113795;28;20043;-82
2023/05/21 03:02:24;;;;;;;8.20;6.00;;;;;;;;;;5105161;28;20448;-83
2023/05/21 03:05:09;;;;;;;8.43;5.97;;;;;;;;;;5105063;28;20048;-82
2023/05/21 03:07:55;;;;;;;9.48;5.53;;;;;;;;;;5105285;28;20055;-83
2023/05/21 03:10:40;;;;;;;8.30;5.32;;;;;;;;;;5105250;28;20044;-83
2023/05/21 03:13:27;;;;;;;10.40;5.70;;;;;;;;;;5107195;28;20485;-83
2023/05/21 03:16:12;;;;;;;13.88;5.90;;;;;;;;;;5102209;28;20416;-81
2023/05/21 03:18:58;;;;;;;11.40;6.07;;;;;;;;;;5117078;28;20047;-83
2023/05/21 03:21:44;;;;;;;7.78;5.45;;;;;;;;;;5117723;28;20051;-83
2023/05/21 03:24:30;;;;;;;8.07;6.40;;;;;;;;;;5108719;28;20055;-82
2023/05/21 03:27:16;;;;;;;10.57;6.93;;;;;;;;;;5109267;28;20052;-83
2023/05/21 03:30:03;;;;;;;10.13;5.65;;;;;;;;;;5108752;28;20039;-84
2023/05/21 03:32:51;;;;;;;10.10;6.50;;;;;;;;;;5108604;28;20043;-81
2023/05/21 03:35:36;;;;;;;9.63;6.32;;;;;;;;;;5108504;28;20031;-82
2023/05/21 03:38:23;;;;;;;11.57;7.75;;;;;;;;;;5108499;28;20043;-82
2023/05/21 03:41:10;;;;;;;10.30;6.85;;;;;;;;;;5108850;28;20047;-84
2023/05/21 03:43:56;;;;;;;12.85;7.10;;;;;;;;;;5108530;28;20036;-82
2023/05/21 03:46:46;;;;;;;13.18;7.18;;;;;;;;;;5108561;28;20051;-82
2023/05/21 03:49:45;;;;;;;10.00;6.13;;;;;;;;;;5096321;28;20040;-84
2023/05/21 03:52:30;;;;;;;11.38;6.18;;;;;;;;;;5108107;28;20035;-82
2023/05/21 03:55:15;;;;;;;11.35;6.07;;;;;;;;;;5108455;28;20043;-82
2023/05/21 03:58:01;;;;;;;9.13;5.63;;;;;;;;;;5107882;28;20039;-82
2023/05/21 04:00:47;;;;;;;10.10;5.78;;;;;;;;;;5116606;28;20048;-84
2023/05/21 04:03:34;;;;;;;9.50;6.43;;;;;;;;;;5108320;28;20051;-83
2023/05/21 04:06:19;;;;;;;8.18;5.97;;;;;;;;;;5108401;28;20031;-84
2023/05/21 04:09:04;;;;;;;10.60;6.05;;;;;;;;;;5093824;28;20043;-80
2023/05/21 04:11:50;;;;;;;10.38;6.30;;;;;;;;;;5098282;28;20486;-84
2023/05/21 04:14:36;;;;;;;8.25;5.70;;;;;;;;;;5101721;28;20052;-83
2023/05/21 04:17:21;;;;;;;13.98;6.03;;;;;;;;;;5101901;28;20401;-84
2023/05/21 04:20:07;;;;;;;15.63;6.60;;;;;;;;;;5101420;28;20497;-83
2023/05/21 04:22:52;;;;;;;12.68;6.47;;;;;;;;;;5101588;28;20048;-81
2023/05/21 04:25:38;;;;;;;9.32;6.43;;;;;;;;;;5095173;28;20393;-83
2023/05/21 04:28:27;;;;;;;15.40;6.85;;;;;;;;;;5101818;28;20473;-83
2023/05/21 04:31:14;;;;;;;12.82;6.75;;;;;;;;;;5095867;28;20036;-83
2023/05/21 04:33:59;;;;;;;13.10;6.95;;;;;;;;;;5101476;28;20043;-83
2023/05/21 04:36:45;;;;;;;16.55;7.30;;;;;;;;;;5101192;28;20043;-83
2023/05/21 04:39:31;;;;;;;14.40;7.03;;;;;;;;;;5100995;28;20040;-81
2023/05/21 04:42:18;;;;;;;14.27;7.00;;;;;;;;;;5101275;28;20036;-79
2023/05/21 04:45:03;;;;;;;13.48;6.90;;;;;;;;;;5095336;28;20044;-84
2023/05/21 04:47:51;;;;;;;10.75;6.43;;;;;;;;;;5101080;28;20036;-80
2023/05/21 04:50:37;;;;;;;12.02;6.28;;;;;;;;;;5101071;28;20044;-82
2023/05/21 04:53:24;;;;;;;9.10;6.13;;;;;;;;;;5100792;28;20048;-80
2023/05/21 04:56:09;;;;;;;10.82;5.57;;;;;;;;;;5095196;28;20388;-82
2023/05/21 04:58:57;;;;;;;11.18;6.05;;;;;;;;;;5100389;28;20040;-80
2023/05/21 05:01:42;;;;;;;8.52;5.60;;;;;;;;;;5100909;28;20052;-83
2023/05/21 05:04:28;;;;;;;7.40;5.43;;;;;;;;;;5100755;28;20044;-82
2023/05/21 05:07:14;;;;;;;10.55;5.88;;;;;;;;;;5100593;28;20039;-82
2023/05/21 05:09:59;;;;;;;13.50;8.38;;;;;;;;;;5100469;28;20044;-81
2023/05/21 05:12:45;;;;;;;10.45;6.32;;;;;;;;;;5094336;28;20040;-81
2023/05/21 05:15:30;;;;;;;17.95;11.20;;;;;;;;;;5100487;28;20040;-83
2023/05/21 05:18:16;;;;;;;10.57;7.20;;;;;;;;;;5100721;28;20040;-81
2023/05/21 05:21:01;;;;;;;10.40;6.07;;;;;;;;;;5094388;28;20040;-83
2023/05/21 05:23:47;;;;;;;10.40;6.40;;;;;;;;;;5100825;28;20485;-83
2023/05/21 05:26:33;;;;;;;15.70;8.52;;;;;;;;;;5094512;28;20051;-83
2023/05/21 05:29:18;;;;;;;9.07;6.10;;;;;;;;;;5100445;28;20048;-81
2023/05/21 05:32:04;;;;;;;10.60;5.53;;;;;;;;;;5100378;28;20401;-84
2023/05/21 05:34:50;;;;;;;9.48;5.55;;;;;;;;;;5093325;28;20036;-83
2023/05/21 05:37:35;;;;;;;9.40;5.90;;;;;;;;;;5100698;28;20489;-82
2023/05/21 05:40:21;;;;;;;9.98;6.47;;;;;;;;;;5100730;28;20374;-82
2023/05/21 05:43:06;;;;;;;9.25;6.10;;;;;;;;;;5099975;28;20485;-82
2023/05/21 05:45:51;;;;;;;10.70;6.07;;;;;;;;;;5100247;28;20489;-80
2023/05/21 05:48:37;;;;;;;11.07;5.90;;;;;;;;;;5099788;28;20044;-80
2023/05/21 05:51:23;;;;;;;9.52;6.20;;;;;;;;;;5100121;28;20052;-80
2023/05/21 05:54:09;;;;;;;13.25;6.53;;;;;;;;;;5099900;28;20044;-80
2023/05/21 05:56:55;;;;;;;9.68;6.75;;;;;;;;;;5099995;28;20040;-80
2023/05/21 05:59:40;;;;;;;9.02;5.82;;;;;;;;;;5099864;28;20474;-80
2023/05/21 06:02:26;;;;;;;10.98;6.00;;;;;;;;;;5099659;28;20048;-83
2023/05/21 06:05:12;;;;;;;8.25;5.47;;;;;;;;;;5092898;28;20040;-85
2023/05/21 06:07:58;;;;;;;8.30;5.63;;;;;;;;;;5093966;28;20040;-81
2023/05/21 06:10:43;;;;;;;10.25;5.60;;;;;;;;;;5094417;28;20044;-82
2023/05/21 06:13:29;;;;;;;7.43;5.53;;;;;;;;;;5114421;28;20052;-81
2023/05/21 06:16:14;;;;;;;9.48;6.07;;;;;;;;;;5105594;28;20044;-83
2023/05/21 06:19:00;;;;;;;9.75;5.70;;;;;;;;;;5104914;28;20043;-80
2023/05/21 06:21:46;;;;;;;8.73;5.35;;;;;;;;;;5105934;28;20043;-80
2023/05/21 06:24:31;;;;;;;10.57;6.25;;;;;;;;;;5105440;28;20035;-82
2023/05/21 06:27:16;;;;;;;7.78;5.22;;;;;;;;;;5114399;28;20392;-79
2023/05/21 06:30:01;;;;;;;8.45;4.90;;;;;;;;;;5105450;28;20069;-79
2023/05/21 06:32:47;;;;;;;7.95;5.22;;;;;;;;;;5105708;28;20485;-79
2023/05/21 06:35:35;;;;;;;8.63;4.63;;;;;;;;;;5105607;28;20047;-81
2023/05/21 06:38:21;;;;;;;6.88;4.47;;;;;;;;;;5091535;28;20040;-79
2023/05/21 06:41:06;;;;;;;7.10;4.68;;;;;;;;;;5114162;28;20056;-82
2023/05/21 06:44:07;;;;;;;6.68;4.55;;;;;;;;;;5106203;28;20047;-82
2023/05/21 06:47:12;;;;;;;7.50;4.93;;;;;;;;;;5114349;28;20032;-79
2023/05/21 06:49:58;;;;;;;7.35;5.30;;;;;;;;;;5109316;28;20040;-79
2023/05/21 06:52:44;;;;;;;7.55;4.40;;;;;;;;;;5117164;28;20487;-82
2023/05/21 06:55:29;;;;;;;5.65;4.28;;;;;;;;;;5109912;28;20039;-79
2023/05/21 06:58:33;;;;;;;8.48;4.85;;;;;;;;;;5109164;28;20048;-81
2023/05/21 07:01:18;;;;;;;9.10;5.20;;;;;;;;;;5109443;28;20039;-81
2023/05/21 07:04:04;;;;;;;8.82;4.95;;;;;;;;;;5107767;28;20040;-82
2023/05/21 07:06:51;;;;;;;9.13;5.15;;;;;;;;;;5108236;28;20040;-81
2023/05/21 07:09:36;;;;;;;10.38;5.10;;;;;;;;;;5108939;28;20420;-79
2023/05/21 07:12:22;;;;;;;9.38;4.97;;;;;;;;;;5097356;28;20070;-79
2023/05/21 07:15:08;;;;;;;7.93;4.65;;;;;;;;;;5102639;28;20048;-81
2023/05/21 07:17:54;;;;;;;6.75;4.60;;;;;;;;;;5102698;28;20036;-81
2023/05/21 07:20:43;;;;;;;10.70;5.03;;;;;;;;;;5102702;28;20044;-81
2023/05/21 07:23:32;;;;;;;15.02;4.78;;;;;;;;;;5102930;28;20393;-80
2023/05/21 07:26:18;;;;;;;7.07;5.07;;;;;;;;;;5102569;28;20044;-83
2023/05/21 07:29:03;;;;;;;10.75;4.95;;;;;;;;;;5102516;28;20501;-80
2023/05/21 07:31:49;;;;;;;9.98;5.53;;;;;;;;;;5102817;28;20044;-81
2023/05/21 07:34:34;;;;;;;6.78;4.38;;;;;;;;;;5096553;28;20040;-82
2023/05/21 07:37:20;;;;;;;7.00;4.57;;;;;;;;;;5096312;28;20044;-83
2023/05/21 07:40:06;;;;;;;9.73;4.80;;;;;;;;;;5101981;28;20052;-84
2023/05/21 07:42:53;;;;;;;10.07;5.00;;;;;;;;;;5102484;28;20047;-80
2023/05/21 07:45:41;;;;;;;9.88;4.68;;;;;;;;;;5102251;28;20044;-83
2023/05/21 07:48:27;;;;;;;7.40;4.32;;;;;;;;;;5102095;28;20390;-83
2023/05/21 07:51:15;;;;;;;8.43;3.80;;;;;;;;;;5102440;28;20036;-80
2023/05/21 07:54:00;;;;;;;6.80;4.45;;;;;;;;;;5102258;28;20040;-80
2023/05/21 07:56:51;;;;;;;5.18;4.10;;;;;;;;;;5102305;28;20040;-82
2023/05/21 08:00:05;;;;;;;6.35;4.05;;;;;;;;;;5101804;28;20398;-81
2023/05/21 08:03:01;;;;;;;7.03;4.20;;;;;;;;;;5096048;28;20036;-83
2023/05/21 08:05:49;;;;;;;6.38;3.92;;;;;;;;;;5101513;28;20393;-80
2023/05/21 08:08:35;;;;;;;7.18;4.25;;;;;;;;;;5101656;28;20048;-79
2023/05/21 08:11:22;;;;;;;7.35;3.90;;;;;;;;;;5105713;28;20047;-87
2023/05/21 08:14:08;;;;;;;10.93;4.13;;;;;;;;;;5107517;28;20388;-84
2023/05/21 08:16:54;;;;;;;7.80;4.28;;;;;;;;;;5107189;28;20056;-84
2023/05/21 08:19:40;;;;;;;11.05;5.28;;;;;;;;;;5107857;28;20035;-81
2023/05/21 08:22:25;;;;;;;7.35;4.53;;;;;;;;;;5107493;28;20043;-81
2023/05/21 08:25:11;;;;;;;10.65;4.30;;;;;;;;;;5107752;28;20039;-84
2023/05/21 08:27:56;;;;;;;10.85;6.72;;;;;;;;;;5108073;28;20040;-83
2023/05/21 08:30:42;;;;;;;16.98;9.13;;;;;;;;;;5107560;28;20416;-81
2023/05/21 08:33:28;;;;;;;9.27;4.82;;;;;;;;;;5116515;28;20044;-80
2023/05/21 08:36:13;;;;;;;7.03;4.47;;;;;;;;;;5117083;28;20469;-81
2023/05/21 08:39:05;;;;;;;8.13;3.95;;;;;;;;;;5107451;28;20047;-82
2023/05/21 08:41:59;;;;;;;8.73;3.95;;;;;;;;;;5107767;28;20051;-84
2023/05/21 08:44:51;;;;;;;6.10;4.00;;;;;;;;;;5108135;28;20043;-80
2023/05/21 08:47:40;;;;;;;13.57;5.25;;;;;;;;;;5093652;28;20052;-81
2023/05/21 08:50:26;;;;;;;9.80;4.20;;;;;;;;;;5106843;28;20036;-81
2023/05/21 08:53:14;;;;;;;5.57;3.88;;;;;;;;;;5106403;28;20039;-81
2023/05/21 08:56:00;;;;;;;7.65;3.95;;;;;;;;;;5106299;28;20043;-82
2023/05/21 08:59:06;;;;;;;6.03;3.85;;;;;;;;;;5121625;28;20044;-82
2023/05/21 09:01:56;;;;;;;13.05;4.88;;;;;;;;;;5106728;28;20044;-87
2023/05/21 09:04:57;;;;;;;9.02;3.67;;;;;;;;;;5107079;28;20040;-83
2023/05/21 09:08:01;;;;;;;9.10;3.83;;;;;;;;;;5106759;28;20473;-86
2023/05/21 09:10:55;;;;;;;5.57;3.58;;;;;;;;;;5104945;28;20051;-81
2023/05/21 09:13:45;;;;;;;9.38;4.43;;;;;;;;;;5106549;28;20035;-80
2023/05/21 09:16:38;;;;;;;11.25;5.47;;;;;;;;;;5106874;28;20048;-80
2023/05/21 09:19:24;;;;;;;7.60;4.45;;;;;;;;;;5106713;28;20047;-82
2023/05/21 09:22:09;;;;;;;6.72;3.72;;;;;;;;;;5106489;28;20043;-82
2023/05/21 09:24:55;;;;;;;6.50;3.90;;;;;;;;;;5114930;28;20047;-79
2023/05/21 09:27:41;;;;;;;6.72;3.85;;;;;;;;;;5106635;28;20039;-80
2023/05/21 09:30:26;;;;;;;6.22;3.60;;;;;;;;;;5115226;28;20039;-82
2023/05/21 09:33:23;;;;;;;7.60;4.28;;;;;;;;;;5106026;28;20404;-83
2023/05/21 09:36:10;;;;;;;5.97;3.83;;;;;;;;;;5106272;28;20043;-80
2023/05/21 09:38:58;;;;;;;5.68;4.53;;;;;;;;;;5106469;28;20392;-81
2023/05/21 09:41:44;;;;;;;8.02;3.78;;;;;;;;;;5106306;28;20043;-83
2023/05/21 09:44:29;;;;;;;5.78;3.95;;;;;;;;;;5114574;28;20032;-82
2023/05/21 09:47:18;;;;;;;7.28;3.72;;;;;;;;;;5106219;28;20036;-80
2023/05/21 09:50:05;;;;;;;5.82;3.15;;;;;;;;;;5106185;28;20484;-81
2023/05/21 09:52:54;;;;;;;6.95;4.00;;;;;;;;;;5114263;28;20043;-81
2023/05/21 09:55:40;;;;;;;6.35;3.45;;;;;;;;;;5114727;28;20039;-82
2023/05/21 09:58:26;;;;;;;6.55;4.13;;;;;;;;;;5114740;28;20040;-82
2023/05/21 10:01:12;;;;;;;6.18;3.88;;;;;;;;;;5114399;28;20043;-82
2023/05/21 10:03:59;;;;;;;5.55;3.75;;;;;;;;;;5114443;28;20044;-79
2023/05/21 10:06:46;;;;;;;4.22;2.97;;;;;;;;;;5114726;28;20055;-81
2023/05/21 10:09:32;;;;;;;9.30;4.13;;;;;;;;;;5114262;28;20047;-81
2023/05/21 10:12:19;;;;;;;6.72;3.75;;;;;;;;;;5100411;28;20401;-81
2023/05/21 10:15:08;;;;;;;9.07;4.05;;;;;;;;;;5113587;28;20397;-78
2023/05/21 10:17:57;;;;;;;8.73;4.15;;;;;;;;;;5114445;28;20044;-79
2023/05/21 10:20:44;;;;;;;4.68;3.25;;;;;;;;;;5112715;28;20032;-77
2023/05/21 10:23:30;;;;;;;9.93;4.07;;;;;;;;;;5113151;28;20051;-78
2023/05/21 10:26:16;;;;;;;7.00;3.90;;;;;;;;;;5114097;28;20035;-78
2023/05/21 10:29:01;;;;;;;8.23;3.85;;;;;;;;;;5113941;28;20048;-79
2023/05/21 10:31:49;;;;;;;8.90;3.72;;;;;;;;;;5112915;28;20400;-77
2023/05/21 10:34:36;;;;;;;4.85;3.50;;;;;;;;;;5113992;28;20043;-77
2023/05/21 10:37:25;;;;;;;8.27;3.17;;;;;;;;;;5114107;28;20035;-79
2023/05/21 10:40:12;;;;;;;9.38;3.35;;;;;;;;;;5113689;28;20040;-78
2023/05/21 10:43:32;;;;;;;8.15;3.70;;;;;;;;;;5113920;28;20044;-83
2023/05/21 10:46:37;;;;;;;6.38;3.83;;;;;;;;;;5114311;28;20039;-82
2023/05/21 10:49:42;;;;;;;5.75;3.25;;;;;;;;;;5114080;28;20389;-79
2023/05/21 10:52:59;;;;;;;7.10;3.33;;;;;;;;;;5120505;28;20043;-81
2023/05/21 10:56:15;;;;;;;9.27;4.25;;;;;;;;;;5113940;28;20035;-80
2023/05/21 10:59:11;;;;;;;7.40;3.50;;;;;;;;;;5115283;28;20039;-81
2023/05/21 11:01:56;;;;;;;6.72;3.33;;;;;;;;;;5115494;28;20040;-82
2023/05/21 11:04:47;;;;;;;8.23;3.47;;;;;;;;;;5113642;28;20040;-77
2023/05/21 11:07:52;;;;;;;4.85;3.22;;;;;;;;;;5114376;28;20043;-78
2023/05/21 11:10:39;;;;;;;6.28;3.65;;;;;;;;;;5113767;28;20512;-77
2023/05/21 11:13:26;;;;;;;7.47;3.55;;;;;;;;;;5114282;28;20044;-79
2023/05/21 11:16:15;;;;;;;8.35;3.60;;;;;;;;;;5114074;28;20048;-79
2023/05/21 11:19:01;;;;;;;9.90;3.80;;;;;;;;;;5113596;28;20036;-79
2023/05/21 11:21:50;;;;;;;9.40;3.83;;;;;;;;;;5113543;28;20044;-77
2023/05/21 11:24:40;;;;;;;7.65;4.28;;;;;;;;;;5113523;28;20047;-80
2023/05/21 11:27:40;;;;;;;9.55;5.13;;;;;;;;;;5113251;28;20480;-76
2023/05/21 11:30:25;;;;;;;13.13;6.25;;;;;;;;;;5113782;28;20040;-77
2023/05/21 11:33:12;;;;;;;9.60;4.85;;;;;;;;;;5113690;28;20039;-79
2023/05/21 11:35:58;;;;;;;12.48;4.30;;;;;;;;;;5117231;28;20467;-83
2023/05/21 11:39:08;;;;;;;13.05;8.57;;;;;;;;;;5117755;28;20039;-80
2023/05/21 11:41:57;;;;;;;8.65;5.03;;;;;;;;;;5117289;28;20048;-80
2023/05/21 11:44:47;;;;;;;8.00;3.45;;;;;;;;;;5118997;28;20464;-80
2023/05/21 11:47:33;;;;;;;11.57;4.80;;;;;;;;;;5118934;28;20044;-79
2023/05/21 11:50:19;;;;;;;7.40;4.47;;;;;;;;;;5118772;28;20047;-79
2023/05/21 11:53:06;;;;;;;11.48;4.35;;;;;;;;;;5118370;28;20044;-81
2023/05/21 11:55:56;;;;;;;6.95;4.38;;;;;;;;;;5118395;28;20051;-80
2023/05/21 11:58:41;;;;;;;15.18;3.78;;;;;;;;;;5104574;28;20393;-82
2023/05/21 12:01:26;;;;;;;7.30;3.92;;;;;;;;;;5117812;28;20044;-80
2023/05/21 12:04:12;;;;;;;6.35;2.75;;;;;;;;;;5116866;28;20048;-82
2023/05/21 12:06:57;;;;;;;5.20;3.22;;;;;;;;;;5116810;28;20039;-83
2023/05/21 12:09:48;;;;;;;8.82;3.50;;;;;;;;;;5116618;28;20051;-81
2023/05/21 12:12:34;;;;;;;6.07;3.35;;;;;;;;;;5116090;28;20417;-82
2023/05/21 12:15:20;;;;;;;6.00;4.18;;;;;;;;;;5116171;28;20044;-82
2023/05/21 12:18:05;;;;;;;5.57;3.60;;;;;;;;;;5116294;28;20465;-82
2023/05/21 12:20:51;;;;;;;4.22;3.00;;;;;;;;;;5116205;28;20040;-83
2023/05/21 12:23:36;;;;;;;4.80;3.13;;;;;;;;;;5116707;28;20039;-82
2023/05/21 12:26:25;;;;;;;6.53;3.22;;;;;;;;;;5116879;28;20043;-82
2023/05/21 12:29:12;;;;;;;4.78;3.40;;;;;;;;;;5116190;28;20047;-84
2023/05/21 12:32:00;;;;;;;4.00;2.90;;;;;;;;;;5116261;28;20040;-83
2023/05/21 12:34:47;;;;;;;5.45;2.92;;;;;;;;;;5101207;28;20048;-82
2023/05/21 12:37:34;;;;;;;5.05;3.13;;;;;;;;;;5116085;28;20492;-82
2023/05/21 12:40:20;;;;;;;5.70;3.55;;;;;;;;;;5116693;28;20389;-81
2023/05/21 12:43:07;;;;;;;6.78;3.67;;;;;;;;;;5115618;28;20039;-82
2023/05/21 12:45:52;;;;;;;7.97;3.75;;;;;;;;;;5115012;28;20035;-82
2023/05/21 12:48:37;;;;;;;13.20;6.78;;;;;;;;;;5115793;28;20047;-82
2023/05/21 12:51:23;;;;;;;7.63;4.28;;;;;;;;;;5115783;28;20039;-81
2023/05/21 12:54:12;;;;;;;5.32;3.88;;;;;;;;;;5115547;28;20393;-81
2023/05/21 12:57:06;;;;;;;6.00;3.97;;;;;;;;;;5115506;28;20048;-81
2023/05/21 12:59:56;;;;;;;12.65;4.80;;;;;;;;;;5115225;28;20036;-82
2023/05/21 13:02:42;;;;;;;5.22;3.10;;;;;;;;;;5115654;28;20047;-81
2023/05/21 13:05:35;;;;;;;4.68;2.92;;;;;;;;;;5114005;28;20043;-82
2023/05/21 13:08:28;;;;;;;9.00;3.53;;;;;;;;;;5092504;28;20047;-80
2023/05/21 13:11:22;;;;;;;7.90;3.85;;;;;;;;;;5114461;28;20035;-78
2023/05/21 13:14:09;;;;;;;6.72;4.22;;;;;;;;;;5114710;28;20055;-79
2023/05/21 13:16:54;;;;;;;6.65;3.75;;;;;;;;;;5115127;28;20102;-79
2023/05/21 13:19:40;;;;;;;7.15;4.47;;;;;;;;;;5114902;28;20044;-82
2023/05/21 13:22:25;;;;;;;7.93;3.97;;;;;;;;;;5114882;28;20044;-80
2023/05/21 13:25:17;;;;;;;7.22;4.50;;;;;;;;;;5113831;28;20044;-82
2023/05/21 13:28:03;;;;;;;9.60;4.47;;;;;;;;;;5114714;28;20052;-81
2023/05/21 13:30:51;;;;;;;5.88;4.22;;;;;;;;;;5115150;28;20469;-81
2023/05/21 13:33:37;;;;;;;12.05;4.97;;;;;;;;;;5114896;28;20047;-81
2023/05/21 13:36:22;;;;;;;7.57;4.53;;;;;;;;;;5114820;28;20044;-81
2023/05/21 13:39:07;;;;;;;14.02;4.53;;;;;;;;;;5114592;28;20036;-82
2023/05/21 13:41:53;;;;;;;8.65;4.35;;;;;;;;;;5115069;28;20043;-83
2023/05/21 13:44:39;;;;;;;7.63;4.07;;;;;;;;;;5114741;28;20047;-82
2023/05/21 13:47:25;;;;;;;6.63;4.70;;;;;;;;;;5114701;28;20051;-81
2023/05/21 13:50:10;;;;;;;9.75;4.10;;;;;;;;;;5114818;28;20044;-81
2023/05/21 13:52:55;;;;;;;6.88;4.00;;;;;;;;;;5114664;28;20481;-81
2023/05/21 13:55:41;;;;;;;9.60;3.90;;;;;;;;;;5114605;28;20485;-81
2023/05/21 13:58:27;;;;;;;7.70;4.07;;;;;;;;;;5113604;28;20047;-82
2023/05/21 14:01:12;;;;;;;11.15;3.85;;;;;;;;;;5114538;28;20472;-81
2023/05/21 14:04:03;;;;;;;6.90;3.72;;;;;;;;;;5113640;28;20043;-82
2023/05/21 14:06:48;;;;;;;9.45;4.22;;;;;;;;;;5112952;28;20039;-82
2023/05/21 14:09:33;;;;;;;6.40;3.85;;;;;;;;;;5114596;28;20048;-82
2023/05/21 14:12:19;;;;;;;6.43;3.78;;;;;;;;;;5112856;28;20047;-83
2023/05/21 14:15:05;;;;;;;8.63;4.10;;;;;;;;;;5114099;28;20036;-79
2023/05/21 14:17:52;;;;;;;5.97;3.80;;;;;;;;;;5113487;28;20043;-80
2023/05/21 14:20:37;;;;;;;5.82;3.67;;;;;;;;;;5113493;28;20047;-80
2023/05/21 14:23:23;;;;;;;9.52;3.63;;;;;;;;;;5114268;28;20040;-81
2023/05/21 14:26:09;;;;;;;5.63;3.92;;;;;;;;;;5114513;28;20052;-81
2023/05/21 14:28:54;;;;;;;7.72;3.90;;;;;;;;;;5114523;28;20040;-81
2023/05/21 14:31:39;;;;;;;7.40;4.30;;;;;;;;;;5099051;28;20047;-81
2023/05/21 14:34:24;;;;;;;9.07;4.53;;;;;;;;;;5113811;28;20407;-79
2023/05/21 14:37:10;;;;;;;6.78;3.85;;;;;;;;;;5114007;28;20039;-81
2023/05/21 14:39:56;;;;;;;10.65;4.90;;;;;;;;;;5114023;28;20040;-79
2023/05/21 14:42:41;;;;;;;8.00;3.75;;;;;;;;;;5113898;28;20059;-81
2023/05/21 14:45:27;;;;;;;10.52;3.60;;;;;;;;;;5113983;28;20039;-79
2023/05/21 14:48:12;;;;;;;8.23;3.63;;;;;;;;;;5113873;28;20035;-82
2023/05/21 14:50:58;;;;;;;5.72;3.42;;;;;;;;;;5114296;28;20048;-79
2023/05/21 14:53:43;;;;;;;5.85;3.70;;;;;;;;;;5113774;28;20048;-78
2023/05/21 14:56:29;;;;;;;5.93;3.50;;;;;;;;;;5113688;28;20044;-78
2023/05/21 14:59:15;;;;;;;9.15;3.85;;;;;;;;;;5113770;28;20048;-79
2023/05/21 15:02:00;;;;;;;7.70;3.65;;;;;;;;;;5114186;28;20039;-78
2023/05/21 15:04:47;;;;;;;9.63;3.95;;;;;;;;;;5113687;28;20047;-80
2023/05/21 15:07:32;;;;;;;9.02;3.90;;;;;;;;;;5113955;28;20036;-79
2023/05/21 15:10:18;;;;;;;7.97;3.88;;;;;;;;;;5116875;28;20404;-81
2023/05/21 15:13:03;;;;;;;8.57;4.38;;;;;;;;;;5117204;28;20044;-79
2023/05/21 15:15:50;;;;;;;8.85;4.18;;;;;;;;;;5117615;28;20040;-78
2023/05/21 15:18:36;;;;;;;9.75;4.15;;;;;;;;;;5102857;28;20157;-79
2023/05/21 15:21:23;;;;;;;7.93;3.92;;;;;;;;;;5117622;28;20393;-81
2023/05/21 15:24:08;;;;;;;10.60;5.78;;;;;;;;;;5117308;28;20039;-79
2023/05/21 15:26:54;;;;;;;8.10;3.90;;;;;;;;;;5117553;28;20039;-80
2023/05/21 15:29:39;;;;;;;7.50;3.50;;;;;;;;;;5094665;28;20040;-78
2023/05/21 15:32:25;;;;;;;7.30;3.88;;;;;;;;;;5117362;28;20048;-79
2023/05/21 15:35:10;;;;;;;6.50;4.00;;;;;;;;;;5117873;28;20048;-78
2023/05/21 15:37:56;;;;;;;7.55;4.35;;;;;;;;;;5117119;28;20043;-81
2023/05/21 15:40:41;;;;;;;9.88;4.18;;;;;;;;;;5116910;28;20405;-79
2023/05/21 15:43:27;;;;;;;8.75;3.75;;;;;;;;;;5117154;28;20047;-78
2023/05/21 15:46:13;;;;;;;8.05;3.85;;;;;;;;;;5123866;28;20484;-80
2023/05/21 15:48:58;;;;;;;5.95;3.78;;;;;;;;;;5116922;28;20473;-78
2023/05/21 15:51:45;;;;;;;6.75;3.63;;;;;;;;;;5117033;28;20047;-78
2023/05/21 15:54:30;;;;;;;7.63;3.97;;;;;;;;;;5116735;28;20039;-80
2023/05/21 15:57:16;;;;;;;12.35;4.22;;;;;;;;;;5116890;28;20059;-78
2023/05/21 16:00:02;;;;;;;10.57;3.85;;;;;;;;;;5116889;28;20047;-80
2023/05/21 16:02:53;;;;;;;11.57;4.30;;;;;;;;;;5116398;28;20036;-78
2023/05/21 16:05:39;;;;;;;9.68;4.18;;;;;;;;;;5116526;28;20055;-81
2023/05/21 16:08:25;;;;;;;8.35;4.18;;;;;;;;;;5116814;28;20040;-78
2023/05/21 16:11:10;;;;;;;7.55;4.28;;;;;;;;;;5116391;28;20048;-78
2023/05/21 16:13:55;;;;;;;9.90;4.10;;;;;;;;;;5116650;28;20047;-81
2023/05/21 16:16:41;;;;;;;13.05;4.97;;;;;;;;;;5116314;28;20423;-78
2023/05/21 16:19:26;;;;;;;11.40;4.88;;;;;;;;;;5116338;28;20044;-81
2023/05/21 16:22:12;;;;;;;13.63;5.28;;;;;;;;;;5115174;28;20039;-79
2023/05/21 16:24:58;;;;;;;9.02;3.90;;;;;;;;;;5116117;28;20396;-77
2023/05/21 16:27:43;;;;;;;8.50;4.15;;;;;;;;;;5116156;28;20048;-80
2023/05/21 16:30:29;;;;;;;6.93;4.30;;;;;;;;;;5116219;28;20051;-80
2023/05/21 16:33:15;;;;;;;9.73;4.47;;;;;;;;;;5116117;28;20156;-81
2023/05/21 16:36:00;;;;;;;9.77;4.60;;;;;;;;;;5115911;28;20036;-80
2023/05/21 16:38:46;;;;;;;13.55;4.88;;;;;;;;;;5115871;28;20055;-81